| Date | Time | Temp. (oF) | Dew Point (oF) | Rel. Hum. (%) | Press. (in.) | Wind Dir. | Wind Speed (mph) | Hourly Rainfall (in.) |
|
|---|---|---|---|---|---|---|---|---|---|
| 1 | 07/08 | 00:00 | 77 | 77 | 100 | 29.72 | SSW | 1 | 0.00 |
| 2 | 07/07 | 23:00 | 78 | 77 | 97 | 29.71 | S | 0 | 0.00 |
| 3 | 07/07 | 22:00 | 79 | 76 | 92 | 29.71 | SW | 2 | 0.00 |
| 4 | 07/07 | 21:00 | 81 | 76 | 87 | 29.70 | S | 4 | 0.00 |
| 5 | 07/07 | 20:00 | 84 | 73 | 70 | 29.68 | WSW | 1 | 0.00 |
| 6 | 07/07 | 19:00 | 87 | 75 | 68 | 29.67 | WSW | 1 | 0.00 |
| 7 | 07/07 | 18:00 | 87 | 75 | 68 | 29.68 | W | 7 | 0.00 |
| 8 | 07/07 | 17:00 | 89 | 74 | 63 | 29.67 | S | 2 | 0.00 |
| 9 | 07/07 | 16:00 | 90 | 77 | 67 | 29.67 | W | 9 | 0.00 |
| 10 | 07/07 | 15:00 | 90 | 73 | 59 | 29.68 | N | 5 | 0.00 |
| 11 | 07/07 | 14:00 | 89 | 74 | 63 | 29.70 | SSW | 4 | 0.00 |
| 12 | 07/07 | 13:00 | 88 | 75 | 67 | 29.73 | N | 4 | 0.00 |
| 13 | 07/07 | 12:00 | 86 | 77 | 77 | 29.74 | SW | 4 | 0.00 |
| 14 | 07/07 | 11:00 | 84 | 75 | 76 | 29.74 | SW | 6 | 0.00 |
| 15 | 07/07 | 10:00 | 82 | 74 | 78 | 29.74 | WSW | 3 | 0.00 |
| 16 | 07/07 | 09:00 | 79 | 78 | 100 | 29.75 | SSW | 0 | 0.00 |
| 17 | 07/07 | 08:00 | 74 | 73 | 100 | 29.74 | WSW | 2 | 0.00 |
| 18 | 07/07 | 07:00 | 71 | 68 | 91 | 29.73 | WSW | 0 | 0.00 |
| 19 | 07/07 | 06:00 | 69 | 68 | 100 | 29.71 | SSE | 0 | 0.00 |
| 20 | 07/07 | 05:00 | 71 | 71 | 100 | 29.71 | SW | 0 | 0.00 |
| 21 | 07/07 | 04:00 | 71 | 71 | 100 | 29.71 | SSW | 0 | 0.00 |
| 22 | 07/07 | 03:00 | 73 | 72 | 100 | 29.72 | S | 0 | 0.00 |
| 23 | 07/07 | 02:00 | 74 | 73 | 100 | 29.74 | SSW | 0 | 0.00 |
| 24 | 07/07 | 01:00 | 75 | 75 | 100 | 29.75 | S | 1 | 0.00 |